createdAt,value
2019-02-25T00:02:28.309Z,8.15
2019-02-25T00:04:59.198Z,8.48
2019-02-25T00:07:29.948Z,10.15
2019-02-25T00:10:00.789Z,10.00
2019-02-25T00:12:33.537Z,8.45
2019-02-25T00:15:05.360Z,8.30
2019-02-25T00:17:38.743Z,8.90
2019-02-25T00:20:10.691Z,8.75
2019-02-25T00:22:41.625Z,8.50
2019-02-25T00:25:12.569Z,8.73
2019-02-25T00:27:43.321Z,9.98
2019-02-25T00:30:14.282Z,9.48
2019-02-25T00:32:45.126Z,8.90
2019-02-25T00:35:15.884Z,9.90
2019-02-25T00:37:46.724Z,11.38
2019-02-25T00:40:17.704Z,9.13
2019-02-25T00:42:48.556Z,10.60
2019-02-25T00:45:19.428Z,9.67
2019-02-25T00:47:50.695Z,9.50
2019-02-25T00:50:21.670Z,9.35
2019-02-25T00:52:52.510Z,10.23
2019-02-25T00:55:23.472Z,9.45
2019-02-25T00:57:54.209Z,10.32
2019-02-25T01:00:26.590Z,9.25
2019-02-25T01:02:57.548Z,9.70
2019-02-25T01:05:28.687Z,9.53
2019-02-25T01:07:59.550Z,9.68
2019-02-25T01:10:30.589Z,8.98
2019-02-25T01:13:01.635Z,9.70
2019-02-25T01:15:32.563Z,9.20
2019-02-25T01:18:03.430Z,9.03
2019-02-25T01:20:34.240Z,9.40
2019-02-25T01:23:05.175Z,9.10
2019-02-25T01:25:36.012Z,9.37
2019-02-25T01:28:06.939Z,9.45
2019-02-25T01:30:37.785Z,9.57
2019-02-25T01:33:08.943Z,9.35
2019-02-25T01:35:39.828Z,10.15
2019-02-25T01:38:10.579Z,9.50
2019-02-25T01:40:41.413Z,11.00
2019-02-25T01:43:12.253Z,11.53
2019-02-25T01:45:43.095Z,10.45
2019-02-25T01:48:14.022Z,10.13
2019-02-25T01:50:45.160Z,9.83
2019-02-25T01:53:16.321Z,10.72
2019-02-25T01:55:47.067Z,9.60
2019-02-25T01:58:18.039Z,9.05
2019-02-25T02:00:48.874Z,8.58
2019-02-25T02:03:19.694Z,8.53
2019-02-25T02:05:50.540Z,9.33
2019-02-25T02:08:21.450Z,9.73
2019-02-25T02:10:52.341Z,8.78
2019-02-25T02:13:23.124Z,8.73
2019-02-25T02:15:53.925Z,10.43
2019-02-25T02:18:24.696Z,9.30
2019-02-25T02:20:55.500Z,10.00
2019-02-25T02:23:26.444Z,8.75
2019-02-25T02:25:57.284Z,9.95
2019-02-25T02:28:28.129Z,9.38
2019-02-25T02:30:58.897Z,8.20
2019-02-25T02:33:29.697Z,8.68
2019-02-25T02:36:01.358Z,8.33
2019-02-25T02:38:32.223Z,7.58
2019-02-25T02:41:02.983Z,10.80
2019-02-25T02:43:34.071Z,7.77
2019-02-25T02:46:13.050Z,7.75
2019-02-25T02:48:47.697Z,8.88
2019-02-25T02:51:18.472Z,8.23
2019-02-25T02:53:49.517Z,7.42
2019-02-25T02:56:20.368Z,8.13
2019-02-25T02:58:52.095Z,8.10
2019-02-25T03:01:23.325Z,7.95
2019-02-25T03:03:54.071Z,8.83
2019-02-25T03:06:24.968Z,10.75
2019-02-25T03:08:56.143Z,9.15
2019-02-25T03:11:26.876Z,7.65
2019-02-25T03:13:58.008Z,8.20
2019-02-25T03:16:28.755Z,8.93
2019-02-25T03:18:59.780Z,9.70
2019-02-25T03:21:30.528Z,7.92
2019-02-25T03:24:01.277Z,8.28
2019-02-25T03:26:32.410Z,10.10
2019-02-25T03:29:03.316Z,7.67
2019-02-25T03:31:34.157Z,7.92
2019-02-25T03:34:05.921Z,7.37
2019-02-25T03:36:36.656Z,6.85
2019-02-25T03:39:08.228Z,8.40
2019-02-25T03:41:39.097Z,8.73
2019-02-25T03:44:09.968Z,7.40
2019-02-25T03:46:40.767Z,7.00
2019-02-25T03:49:11.521Z,9.40
2019-02-25T03:51:42.351Z,9.20
2019-02-25T03:54:13.095Z,7.35
2019-02-25T03:56:44.049Z,7.97
2019-02-25T03:59:14.995Z,7.10
2019-02-25T04:01:46.188Z,8.35
2019-02-25T04:04:17.127Z,7.03
2019-02-25T04:06:47.939Z,6.80
2019-02-25T04:09:18.845Z,8.40
2019-02-25T04:11:49.651Z,6.75
2019-02-25T04:14:21.370Z,7.90
2019-02-25T04:16:52.278Z,7.80
2019-02-25T04:19:23.024Z,7.72
2019-02-25T04:21:53.776Z,7.30
2019-02-25T04:24:24.595Z,7.90
2019-02-25T04:26:55.792Z,5.60
2019-02-25T04:29:26.687Z,6.05
2019-02-25T04:31:59.290Z,5.47
2019-02-25T04:34:30.204Z,5.53
2019-02-25T04:37:01.150Z,5.78
2019-02-25T04:39:31.907Z,6.70
2019-02-25T04:42:02.664Z,7.67
2019-02-25T04:44:33.487Z,14.37
2019-02-25T04:47:04.735Z,14.38
2019-02-25T04:49:35.467Z,14.38
2019-02-25T04:52:06.250Z,16.20
2019-02-25T04:54:37.048Z,13.10
2019-02-25T04:57:07.934Z,13.38
2019-02-25T04:59:38.695Z,12.55
2019-02-25T05:02:09.530Z,8.98
2019-02-25T05:04:40.264Z,7.70
2019-02-25T05:07:11.032Z,8.05
2019-02-25T05:09:41.767Z,9.15
2019-02-25T05:12:12.836Z,10.40
2019-02-25T05:14:43.590Z,8.15
2019-02-25T05:17:14.466Z,9.20
2019-02-25T05:19:45.256Z,9.10
2019-02-25T05:22:15.995Z,8.85
2019-02-25T05:24:46.923Z,10.23
2019-02-25T05:27:17.739Z,8.10
2019-02-25T05:29:49.063Z,11.12
2019-02-25T05:32:19.831Z,8.98
2019-02-25T05:34:50.611Z,12.33
2019-02-25T05:37:21.968Z,11.75
2019-02-25T05:39:52.786Z,13.08
2019-02-25T05:42:24.030Z,10.43
2019-02-25T05:44:54.811Z,9.85
2019-02-25T05:47:30.995Z,7.78
2019-02-25T05:50:08.636Z,8.78
2019-02-25T05:52:39.379Z,8.90
2019-02-25T05:55:11.844Z,11.43
2019-02-25T05:57:42.768Z,10.30
2019-02-25T06:00:17.824Z,9.87
2019-02-25T06:02:48.612Z,9.63
2019-02-25T06:05:19.431Z,8.27
2019-02-25T06:07:50.332Z,8.67
2019-02-25T06:10:21.133Z,9.37
2019-02-25T06:12:51.931Z,8.13
2019-02-25T06:15:22.790Z,10.68
2019-02-25T06:17:53.726Z,11.80
2019-02-25T06:20:24.548Z,8.43
2019-02-25T06:22:55.457Z,10.53
2019-02-25T06:25:26.235Z,8.03
2019-02-25T06:27:56.991Z,10.90
2019-02-25T06:30:29.462Z,9.60
2019-02-25T06:33:00.476Z,11.40
2019-02-25T06:35:31.352Z,12.20
2019-02-25T06:38:02.585Z,8.83
2019-02-25T06:40:33.447Z,10.70
2019-02-25T06:43:04.616Z,10.58
2019-02-25T06:45:35.935Z,12.97
2019-02-25T06:48:06.687Z,13.65
2019-02-25T06:50:37.479Z,12.40
2019-02-25T06:53:08.257Z,11.30
2019-02-25T06:55:39.047Z,12.10
2019-02-25T06:58:10.468Z,19.77
2019-02-25T07:00:41.244Z,17.35
2019-02-25T07:03:12.426Z,17.25
2019-02-25T07:05:51.181Z,14.75
2019-02-25T07:08:40.248Z,18.80
2019-02-25T07:11:26.114Z,16.65
2019-02-25T07:14:06.130Z,19.40
2019-02-25T07:16:57.287Z,16.75
2019-02-25T07:19:42.629Z,16.67
2019-02-25T07:22:39.514Z,18.82
2019-02-25T07:25:19.688Z,17.87
2019-02-25T07:28:10.308Z,15.45
2019-02-25T07:31:00.880Z,14.25
2019-02-25T07:34:09.825Z,16.87
2019-02-25T07:36:59.814Z,12.77
2019-02-25T07:39:44.742Z,10.75
2019-02-25T07:42:33.344Z,10.63
2019-02-25T07:45:29.629Z,14.58
2019-02-25T07:48:08.664Z,12.53
2019-02-25T07:51:11.050Z,10.98
2019-02-25T07:54:04.216Z,12.85
2019-02-25T07:57:02.876Z,14.65
2019-02-25T07:59:51.737Z,11.03
2019-02-25T08:02:44.197Z,9.70
2019-02-25T08:05:43.401Z,11.53
2019-02-25T08:08:22.519Z,12.90
2019-02-25T08:11:11.380Z,13.47
2019-02-25T08:13:59.911Z,21.68
2019-02-25T08:16:49.868Z,17.37
2019-02-25T08:19:50.671Z,21.05
2019-02-25T08:22:34.633Z,19.23
2019-02-25T08:25:25.338Z,11.73
2019-02-25T08:28:07.503Z,10.72
2019-02-25T08:31:03.211Z,13.28
2019-02-25T08:33:50.393Z,13.95
2019-02-25T08:36:43.229Z,11.85
2019-02-25T08:39:30.140Z,12.53
2019-02-25T08:42:15.407Z,13.53
2019-02-25T08:44:51.148Z,12.40
2019-02-25T08:47:29.179Z,11.50
2019-02-25T08:50:03.601Z,9.15
2019-02-25T08:52:34.854Z,8.50
2019-02-25T08:55:07.247Z,8.08
2019-02-25T08:57:38.305Z,7.50
2019-02-25T09:00:11.617Z,7.25
2019-02-25T09:02:42.749Z,9.10
2019-02-25T09:05:14.576Z,7.37
2019-02-25T09:07:45.311Z,6.97
2019-02-25T09:10:16.123Z,7.00
2019-02-25T09:12:48.837Z,5.62
2019-02-25T09:15:19.870Z,7.65
2019-02-25T09:17:49.843Z,8.05
2019-02-25T09:20:20.628Z,7.53
2019-02-25T09:22:51.668Z,7.95
2019-02-25T09:25:22.391Z,6.10
2019-02-25T09:27:53.764Z,6.45
2019-02-25T09:30:24.675Z,7.03
2019-02-25T09:32:55.454Z,7.33
2019-02-25T09:35:26.557Z,6.03
2019-02-25T09:37:57.279Z,9.43
2019-02-25T09:40:28.046Z,6.33
2019-02-25T09:42:59.109Z,8.45
2019-02-25T09:45:29.933Z,6.73
2019-02-25T09:48:00.650Z,6.87
2019-02-25T09:50:31.752Z,6.97
2019-02-25T09:53:02.826Z,6.78
2019-02-25T09:55:33.628Z,6.00
2019-02-25T09:58:04.845Z,6.00
2019-02-25T10:00:35.640Z,4.63
2019-02-25T10:03:06.359Z,5.80
2019-02-25T10:05:37.387Z,3.83
2019-02-25T10:08:08.136Z,6.37
2019-02-25T10:10:38.862Z,4.53
2019-02-25T10:13:09.563Z,6.62
2019-02-25T10:15:40.606Z,5.33
2019-02-25T10:18:11.323Z,4.20
2019-02-25T10:20:42.115Z,3.62
2019-02-25T10:23:12.856Z,6.58
2019-02-25T10:25:43.863Z,4.40
2019-02-25T10:28:14.840Z,7.70
2019-02-25T10:30:52.586Z,4.47
2019-02-25T10:33:18.822Z,3.65
2019-02-25T10:35:49.540Z,3.30
2019-02-25T10:38:21.613Z,3.35
2019-02-25T10:40:53.879Z,3.75
2019-02-25T10:43:26.135Z,2.62
2019-02-25T10:45:57.394Z,3.67
2019-02-25T10:48:28.149Z,10.18
2019-02-25T10:50:59.819Z,3.67
2019-02-25T10:53:31.821Z,3.12
2019-02-25T10:56:17.323Z,4.22
2019-02-25T10:58:49.058Z,1.85
2019-02-25T11:01:22.343Z,2.72
2019-02-25T11:03:54.292Z,4.90
2019-02-25T11:06:26.814Z,2.47
2019-02-25T11:09:15.866Z,3.17
2019-02-25T11:11:48.557Z,4.55
2019-02-25T11:14:19.506Z,2.45
2019-02-25T11:16:52.240Z,2.95
2019-02-25T11:19:24.895Z,5.70
2019-02-25T11:21:55.829Z,3.33
2019-02-25T11:24:26.635Z,4.45
2019-02-25T11:26:59.032Z,4.62
2019-02-25T11:29:29.937Z,2.87
2019-02-25T11:32:00.782Z,2.40
2019-02-25T11:34:33.173Z,2.45
2019-02-25T11:37:04.176Z,3.95
2019-02-25T11:39:36.771Z,3.72
2019-02-25T11:42:08.393Z,2.37
2019-02-25T11:44:40.266Z,2.72
2019-02-25T11:47:11.070Z,1.85
2019-02-25T11:49:43.072Z,4.15
2019-02-25T11:52:15.051Z,2.95
2019-02-25T11:54:46.045Z,3.17
2019-02-25T11:57:17.498Z,2.70
2019-02-25T11:59:48.718Z,3.87
2019-02-25T12:02:25.462Z,5.20
2019-02-25T12:04:52.257Z,2.72
2019-02-25T12:07:22.999Z,3.15
2019-02-25T12:09:54.013Z,3.60
2019-02-25T12:12:24.747Z,4.08
2019-02-25T12:14:55.937Z,2.45
2019-02-25T12:17:27.241Z,3.93
2019-02-25T12:19:57.973Z,2.60
2019-02-25T12:22:28.747Z,3.75
2019-02-25T12:24:59.751Z,5.12
2019-02-25T12:27:30.824Z,2.80
2019-02-25T12:30:01.779Z,3.47
2019-02-25T12:32:32.555Z,2.70
2019-02-25T12:35:03.718Z,3.07
2019-02-25T12:37:34.591Z,2.62
2019-02-25T12:40:05.946Z,2.55
2019-02-25T12:42:36.826Z,4.87
2019-02-25T12:45:08.102Z,2.25
2019-02-25T12:47:38.850Z,4.22
2019-02-25T12:50:10.117Z,2.10
2019-02-25T12:52:41.037Z,2.50
2019-02-25T12:55:11.806Z,4.80
2019-02-25T12:57:42.619Z,2.52
2019-02-25T13:00:14.338Z,3.60
2019-02-25T13:02:45.138Z,3.83
2019-02-25T13:05:16.116Z,3.35
2019-02-25T13:07:47.006Z,2.60
2019-02-25T13:10:17.847Z,1.70
2019-02-25T13:12:48.847Z,2.52
2019-02-25T13:15:19.662Z,3.25
2019-02-25T13:17:50.406Z,3.47
2019-02-25T13:20:21.545Z,3.22
2019-02-25T13:22:52.578Z,2.17
2019-02-25T13:25:23.315Z,2.60
2019-02-25T13:27:56.465Z,2.33
2019-02-25T13:30:27.136Z,2.10
2019-02-25T13:32:57.912Z,2.77
2019-02-25T13:35:28.729Z,2.00
2019-02-25T13:37:59.862Z,3.83
2019-02-25T13:40:31.113Z,1.40
2019-02-25T13:43:01.911Z,1.30
2019-02-25T13:45:32.717Z,3.13
2019-02-25T13:48:03.602Z,2.80
2019-02-25T13:50:34.449Z,3.67
2019-02-25T13:53:05.313Z,3.60
2019-02-25T13:55:36.243Z,2.87
2019-02-25T13:58:07.210Z,3.47
2019-02-25T14:00:38.238Z,4.50
2019-02-25T14:03:09.388Z,2.72
2019-02-25T14:05:40.634Z,4.00
2019-02-25T14:08:11.457Z,4.05
2019-02-25T14:10:42.363Z,4.00
2019-02-25T14:13:13.173Z,2.50
2019-02-25T14:15:44.389Z,4.95
2019-02-25T14:18:15.246Z,2.67
2019-02-25T14:20:46.122Z,3.72
2019-02-25T14:23:18.578Z,4.70
2019-02-25T14:25:50.167Z,3.20
2019-02-25T14:28:21.238Z,4.37
2019-02-25T14:30:52.076Z,3.40
2019-02-25T14:33:23.669Z,6.15
2019-02-25T14:35:55.499Z,5.47
2019-02-25T14:38:27.640Z,5.80
2019-02-25T14:40:58.770Z,4.13
2019-02-25T14:43:29.822Z,4.17
2019-02-25T14:46:01.579Z,5.35
2019-02-25T14:48:35.223Z,5.25
2019-02-25T14:51:08.594Z,8.43
2019-02-25T14:53:38.982Z,4.53
2019-02-25T14:56:10.405Z,3.13
2019-02-25T14:58:42.971Z,3.52
2019-02-25T15:01:14.662Z,3.53
2019-02-25T15:03:45.522Z,3.70
2019-02-25T15:06:16.308Z,4.42
2019-02-25T15:08:47.310Z,5.85
2019-02-25T15:11:18.315Z,6.72
2019-02-25T15:13:49.270Z,4.63
2019-02-25T15:16:20.784Z,3.02
2019-02-25T15:18:52.015Z,4.95
2019-02-25T15:21:23.194Z,5.33
2019-02-25T15:23:54.222Z,6.33
2019-02-25T15:26:25.753Z,3.35
2019-02-25T15:28:59.072Z,2.98
2019-02-25T15:31:31.496Z,3.80
2019-02-25T15:34:02.678Z,5.00
2019-02-25T15:36:33.686Z,4.50
2019-02-25T15:39:07.137Z,3.20
2019-02-25T15:41:38.514Z,2.98
2019-02-25T15:44:13.102Z,3.00
2019-02-25T15:46:44.286Z,5.30
2019-02-25T15:49:17.359Z,6.22
2019-02-25T15:51:48.309Z,3.58
2019-02-25T15:54:19.425Z,5.83
2019-02-25T15:56:50.692Z,2.90
2019-02-25T15:59:21.530Z,2.87
2019-02-25T16:01:52.459Z,3.83
2019-02-25T16:04:25.547Z,2.07
2019-02-25T16:06:57.624Z,2.80
2019-02-25T16:09:29.712Z,3.58
2019-02-25T16:12:03.276Z,3.95
2019-02-25T16:14:35.585Z,3.67
2019-02-25T16:17:06.510Z,4.92
2019-02-25T16:19:43.774Z,4.08
2019-02-25T16:22:11.767Z,3.20
2019-02-25T16:24:43.623Z,4.92
2019-02-25T16:27:14.699Z,3.50
2019-02-25T16:29:45.598Z,4.92
2019-02-25T16:32:26.217Z,3.77
2019-02-25T16:34:58.577Z,2.93
2019-02-25T16:37:31.744Z,4.87
2019-02-25T16:40:03.862Z,3.40
2019-02-25T16:42:36.901Z,3.23
2019-02-25T16:45:11.825Z,5.05
2019-02-25T16:47:43.896Z,5.47
2019-02-25T16:50:16.546Z,4.62
2019-02-25T16:52:49.152Z,4.97
2019-02-25T16:55:22.487Z,5.30
2019-02-25T16:57:53.029Z,4.80
2019-02-25T17:00:25.258Z,7.33
2019-02-25T17:02:59.200Z,5.37
2019-02-25T17:05:29.807Z,5.83
2019-02-25T17:08:01.310Z,6.28
2019-02-25T17:10:33.870Z,6.05
2019-02-25T17:13:05.928Z,3.80
2019-02-25T17:18:20.636Z,4.65
2019-02-25T17:20:51.817Z,7.30
2019-02-25T17:23:25.077Z,4.58
2019-02-25T17:25:57.716Z,7.15
2019-02-25T17:28:28.562Z,10.40
2019-02-25T17:30:59.649Z,9.58
2019-02-25T17:33:32.197Z,7.17
2019-02-25T17:36:05.820Z,7.78
2019-02-25T17:38:37.717Z,9.23
2019-02-25T17:41:10.796Z,10.20
2019-02-25T17:43:43.090Z,6.80
2019-02-25T17:46:14.625Z,6.90
2019-02-25T17:48:46.553Z,9.63
2019-02-25T17:51:18.581Z,7.17
2019-02-25T17:53:50.453Z,9.43
2019-02-25T17:56:23.109Z,9.65
2019-02-25T17:58:55.093Z,10.47
2019-02-25T18:01:27.905Z,10.13
2019-02-25T18:03:59.942Z,11.70
2019-02-25T18:06:31.905Z,13.48
2019-02-25T18:09:05.506Z,10.33
2019-02-25T18:11:39.011Z,9.55
2019-02-25T18:14:11.080Z,10.20
2019-02-25T18:16:46.105Z,8.50
2019-02-25T18:19:16.600Z,8.40
2019-02-25T18:21:48.240Z,7.40
2019-02-25T18:24:20.023Z,8.33
2019-02-25T18:26:50.849Z,9.20
2019-02-25T18:29:22.677Z,9.93
2019-02-25T18:31:54.053Z,10.03
2019-02-25T18:34:24.797Z,7.08
2019-02-25T18:36:55.601Z,7.55
2019-02-25T18:39:27.798Z,11.78
2019-02-25T18:41:59.624Z,8.80
2019-02-25T18:44:31.062Z,8.93
2019-02-25T18:47:02.035Z,8.45
2019-02-25T18:49:34.780Z,8.63
2019-02-25T18:52:05.645Z,9.95
2019-02-25T18:54:36.934Z,8.48
2019-02-25T18:57:08.317Z,11.28
2019-02-25T18:59:39.553Z,9.88
2019-02-25T19:02:12.384Z,10.63
2019-02-25T19:04:45.176Z,8.83
2019-02-25T19:07:16.233Z,9.43
2019-02-25T19:09:49.162Z,11.12
2019-02-25T19:12:19.698Z,10.85
2019-02-25T19:14:52.984Z,11.43
2019-02-25T19:17:25.189Z,10.17
2019-02-25T19:19:57.071Z,10.23
2019-02-25T19:22:29.760Z,11.43
2019-02-25T19:25:01.670Z,17.40
2019-02-25T19:27:35.775Z,16.23
2019-02-25T19:30:06.865Z,11.95
2019-02-25T19:32:40.432Z,13.32
2019-02-25T19:35:11.572Z,12.63
2019-02-25T19:37:44.323Z,11.63
2019-02-25T19:40:19.435Z,12.65
2019-02-25T19:42:51.535Z,12.33
2019-02-25T19:45:23.929Z,11.03
2019-02-25T19:47:55.955Z,11.70
2019-02-25T19:50:28.189Z,10.10
2019-02-25T19:53:02.503Z,15.35
2019-02-25T19:55:33.923Z,12.33
2019-02-25T19:58:05.319Z,11.53
2019-02-25T20:00:36.091Z,12.33
2019-02-25T20:03:07.065Z,12.10
2019-02-25T20:05:41.173Z,12.78
2019-02-25T20:08:11.298Z,12.65
2019-02-25T20:10:42.498Z,10.55
2019-02-25T20:13:13.600Z,14.57
2019-02-25T20:15:46.608Z,15.13
2019-02-25T20:18:18.356Z,12.47
2019-02-25T20:20:49.838Z,11.57
2019-02-25T20:23:22.296Z,12.03
2019-02-25T20:25:53.575Z,12.58
2019-02-25T20:28:27.409Z,11.63
2019-02-25T20:30:58.351Z,11.93
2019-02-25T20:33:31.834Z,11.50
2019-02-25T20:36:03.183Z,13.00
2019-02-25T20:38:37.066Z,12.28
2019-02-25T20:41:07.918Z,14.50
2019-02-25T20:43:39.937Z,14.98
2019-02-25T20:46:13.282Z,11.65
2019-02-25T20:48:46.490Z,12.07
2019-02-25T20:51:16.535Z,11.97
2019-02-25T20:53:48.986Z,13.80
2019-02-25T20:56:19.768Z,12.20
2019-02-25T20:58:50.533Z,11.63
2019-02-25T21:01:21.402Z,12.23
2019-02-25T21:03:53.058Z,11.57
2019-02-25T21:06:25.882Z,13.38
2019-02-25T21:08:56.899Z,11.43
2019-02-25T21:11:28.098Z,11.80
2019-02-25T21:13:59.023Z,11.80
2019-02-25T21:16:30.499Z,11.93
2019-02-25T21:19:02.616Z,10.80
2019-02-25T21:21:35.171Z,11.73
2019-02-25T21:24:08.935Z,11.47
2019-02-25T21:26:41.193Z,11.80
2019-02-25T21:29:12.041Z,13.20
2019-02-25T21:31:45.271Z,10.58
2019-02-25T21:34:17.734Z,10.90
2019-02-25T21:36:47.762Z,10.98
2019-02-25T21:39:19.132Z,11.65
2019-02-25T21:41:50.041Z,10.05
2019-02-25T21:44:21.314Z,12.47
2019-02-25T21:46:54.042Z,10.40
2019-02-25T21:49:27.158Z,13.35
2019-02-25T21:51:57.981Z,12.33
2019-02-25T21:54:30.388Z,11.12
2019-02-25T21:57:03.209Z,12.75
2019-02-25T21:59:34.920Z,12.20
2019-02-25T22:02:06.527Z,12.88
2019-02-25T22:04:40.461Z,14.15
2019-02-25T22:07:10.021Z,11.88
2019-02-25T22:09:41.900Z,12.25
2019-02-25T22:12:14.154Z,13.18
2019-02-25T22:14:46.048Z,14.73
2019-02-25T22:17:19.913Z,11.15
2019-02-25T22:19:50.236Z,16.23
2019-02-25T22:22:24.193Z,12.40
2019-02-25T22:24:54.187Z,12.13
2019-02-25T22:27:25.325Z,12.18
2019-02-25T22:29:57.851Z,11.83
2019-02-25T22:32:28.514Z,13.35
2019-02-25T22:35:00.452Z,13.30
2019-02-25T22:37:31.813Z,12.53
2019-02-25T22:40:02.808Z,12.05
2019-02-25T22:42:35.529Z,14.90
2019-02-25T22:45:09.509Z,14.63
2019-02-25T22:47:40.270Z,15.58
2019-02-25T22:50:13.481Z,14.43
2019-02-25T22:52:45.324Z,12.37
2019-02-25T22:55:19.681Z,12.90
2019-02-25T22:57:51.285Z,12.05
2019-02-25T23:00:29.987Z,12.15
2019-02-25T23:03:02.487Z,13.80
2019-02-25T23:05:33.300Z,11.45
2019-02-25T23:08:08.981Z,11.80
2019-02-25T23:10:40.026Z,11.78
2019-02-25T23:13:10.809Z,14.93
2019-02-25T23:15:43.769Z,11.90
2019-02-25T23:18:14.879Z,12.03
2019-02-25T23:20:46.765Z,12.83
2019-02-25T23:23:18.598Z,12.58
2019-02-25T23:25:53.623Z,13.03
2019-02-25T23:28:28.585Z,10.93
2019-02-25T23:31:00.285Z,11.25
2019-02-25T23:33:31.304Z,11.80
2019-02-25T23:36:02.055Z,11.45
2019-02-25T23:38:33.471Z,11.60
2019-02-25T23:41:05.412Z,13.80
2019-02-25T23:43:38.588Z,13.80
2019-02-25T23:46:09.694Z,11.60
2019-02-25T23:48:41.808Z,14.05
2019-02-25T23:51:14.275Z,11.65
2019-02-25T23:53:46.551Z,11.35
2019-02-25T23:56:20.339Z,12.13
2019-02-25T23:58:51.866Z,10.90
